WetterOnline ( https://www.wetteronline.de )

Wetter aktuell Meuselbach-Schwarzmühle

Aktuelles Wetter: Neuhaus (851m)

6-stündlich | Neueste Meldungen
Ortszeit Temperatur Wetter
Mo, 20.05. 2:00 8.0° C leicht bewölkt
So, 19.05. 20:00 11.7° C leicht bewölkt
So, 19.05. 14:00 11.7° C bewölkt
So, 19.05. 8:00 8.8° C Sprühregen
So, 19.05. 2:00 9.8° C bewölkt
Sa, 18.05. 20:00 10.8° C leichter Regen
Sa, 18.05. 14:00 11.1° C bedeckt
Sa, 18.05. 8:00 8.6° C leicht bewölkt
Ortszeit Temperatur Wetter
Mo, 20.05. 7:30 9.7° C bedeckt
Mo, 20.05. 7:20 9.7° C bedeckt
Mo, 20.05. 7:10 9.6° C bedeckt
Mo, 20.05. 7:00 9.2° C bedeckt
Mo, 20.05. 6:50 9.2° C bedeckt
Mo, 20.05. 6:40 9.0° C bedeckt
Mo, 20.05. 6:30 8.6° C bedeckt
Mo, 20.05. 6:00 8.0° C Nebel
Mo, 20.05. 5:30 7.6° C Nebel
Mo, 20.05. 5:00 7.7° C Nebel
Mo, 20.05. 4:30 7.8° C Nebel
Ortszeit Relative Feuchte Sichtweite
Mo, 20.05. 2:00 95% 12 km
So, 19.05. 20:00 86% 40 km
So, 19.05. 14:00 88% 24 km
So, 19.05. 8:00 99% 100 m
So, 19.05. 2:00 97% 3.0 km
Sa, 18.05. 20:00 94% 9 km
Sa, 18.05. 14:00 83% >70 km
Sa, 18.05. 8:00 90% 65 km
Ortszeit Relative Feuchte Sichtweite
Mo, 20.05. 7:30 94% 10 km
Mo, 20.05. 7:20 94% -
Mo, 20.05. 7:10 95% -
Mo, 20.05. 7:00 95% 16 km
Mo, 20.05. 6:50 95% -
Mo, 20.05. 6:40 95% -
Mo, 20.05. 6:30 95% 25 km
Mo, 20.05. 6:00 95% 29 km
Mo, 20.05. 5:30 97% 14 km
Mo, 20.05. 5:00 97% 11 km
Mo, 20.05. 4:30 97% 9 km
Ortszeit Niederschlagsmenge Niederschlagsart
Mo, 20.05. 2:00 0.0 l/m2 in 6 Std. -
So, 19.05. 20:00 3 l/m2 in 12 Std. Regen
So, 19.05. 14:00 0.3 l/m2 in 6 Std. Regen
So, 19.05. 8:00 10 l/m2 in 12 Std. Regen
So, 19.05. 2:00 10 l/m2 in 6 Std. Regen
Sa, 18.05. 20:00 3 l/m2 in 12 Std. Regen
Sa, 18.05. 14:00 0.0 l/m2 in 6 Std. -
Sa, 18.05. 8:00 0.2 l/m2 in 12 Std. Regen
Ortszeit Niederschlagsmenge Niederschlagsart
Mo, 20.05. 7:30 0.0 l/m2 in 30 Min -
Mo, 20.05. 7:20 keine Meldung -
Mo, 20.05. 7:10 keine Meldung -
Mo, 20.05. 7:00 0.0 l/m2 in 1 Std. -
Mo, 20.05. 6:50 keine Meldung -
Mo, 20.05. 6:40 keine Meldung -
Mo, 20.05. 6:30 0.0 l/m2 in 30 Min -
Mo, 20.05. 6:00 0.0 l/m2 in 1 Std. -
Mo, 20.05. 5:30 0.0 l/m2 in 30 Min -
Mo, 20.05. 5:00 0.0 l/m2 in 1 Std. -
Mo, 20.05. 4:30 0.0 l/m2 in 30 Min -
Ortszeit Stärke Spitze Richtung
km/h Bft. km/h Grad Sektor
Mo, 20.05. 2:00 7 2 22 250° W
So, 19.05. 20:00 11 2 32 210° SW
So, 19.05. 14:00 14 3 36 230° SW
So, 19.05. 8:00 14 3 32 200° S
So, 19.05. 2:00 11 2 22 210° SW
Sa, 18.05. 20:00 4 1 29 200° S
Sa, 18.05. 14:00 11 2 18 240° SW
Sa, 18.05. 8:00 4 1 14 50° NO
Ortszeit Stärke Spitze Richtung
km/h Bft. km/h Grad Sektor
Mo, 20.05. 7:30 9 2 17 230° SW
Mo, 20.05. 7:20 9 2 - 230° SW
Mo, 20.05. 7:10 7 2 - 230° SW
Mo, 20.05. 7:00 11 2 18 210° SW
Mo, 20.05. 6:50 11 2 - 210° SW
Mo, 20.05. 6:40 11 2 - 210° SW
Mo, 20.05. 6:30 9 2 19 200° S
Mo, 20.05. 6:00 7 2 14 210° SW
Mo, 20.05. 5:30 9 2 13 230° SW
Mo, 20.05. 5:00 7 2 11 220° SW
Mo, 20.05. 4:30 7 2 11 220° SW
Ortszeit Untergrenze Bedeckung Gattung
total tief tief mittel hoch
Mo, 20.05. 2:00 7200 m 5/8 0/8 - - -
So, 19.05. 20:00 360 m 3/8 3/8 - - -
So, 19.05. 14:00 270 m 7/8 7/8 - - -
So, 19.05. 8:00 <30 m 8/8 0/8 - - -
So, 19.05. 2:00 30 m 7/8 7/8 - - -
Sa, 18.05. 20:00 390 m 8/8 8/8 - - -
Sa, 18.05. 14:00 540 m 8/8 8/8 - - -
Sa, 18.05. 8:00 210 m 3/8 3/8 - - -
Ortszeit Bedeckungsgrad in Achtel und Wolkenuntergrenze
Mo, 20.05. 7:30 8(6000m)
Mo, 20.05. 7:20 8(6000m)
Mo, 20.05. 7:10 8
Mo, 20.05. 7:00 8(5700m)
Mo, 20.05. 6:50 8(5700m)
Mo, 20.05. 6:40 8
Mo, 20.05. 6:30 7(5400m) 8(6000m) 8(7500m)
Mo, 20.05. 6:00 8(6000m) 8(6900m) 8(7500m)
Mo, 20.05. 5:30 7(6600m) 8(7200m)
Mo, 20.05. 5:00 8(6600m)
Mo, 20.05. 4:30 8(6900m)
Ortszeit Stationsdruck (hPa) Tendenz (hPa in 3 Std.)
Mo, 20.05. 2:00 914 + 0,1
So, 19.05. 20:00 913 - 0,3
So, 19.05. 14:00 914 - 0,3
So, 19.05. 8:00 913 + 0,6
So, 19.05. 2:00 913 - 0,4
Sa, 18.05. 20:00 913 0,0
Sa, 18.05. 14:00 913 + 0,8
Sa, 18.05. 8:00 911 + 0,8
Ortszeit Stationsdruck (hPa) Tendenz (hPa in 3 Std.)
Mo, 20.05. 7:30 914 + 0,3
Mo, 20.05. 7:20 914 keine Meldung
Mo, 20.05. 7:10 914 keine Meldung
Mo, 20.05. 7:00 914 0,0
Mo, 20.05. 6:50 914 keine Meldung
Mo, 20.05. 6:40 914 keine Meldung
Mo, 20.05. 6:30 914 + 0,1
Mo, 20.05. 6:00 914 - 0,1
Mo, 20.05. 5:30 914 0,0
Mo, 20.05. 5:00 914 + 0,1
Mo, 20.05. 4:30 914 0,0
Ortszeit Schneehöhe (cm)
Mo, 20.05. 2:00 0
So, 19.05. 20:00 0
So, 19.05. 14:00 0
So, 19.05. 8:00 0
So, 19.05. 2:00 0
Sa, 18.05. 20:00 0
Sa, 18.05. 14:00 0
Sa, 18.05. 8:00 0
Ortszeit Schneehöhe (cm)
Mo, 20.05. 7:30 0
Mo, 20.05. 7:20 0
Mo, 20.05. 7:10 -
Mo, 20.05. 7:00 0
Mo, 20.05. 6:50 0
Mo, 20.05. 6:40 -
Mo, 20.05. 6:30 0
Mo, 20.05. 6:00 0
Mo, 20.05. 5:30 0
Mo, 20.05. 5:00 0
Mo, 20.05. 4:30 0
Link zu dieser Seite / Seite empfehlen

Das Wetter in ...